Aérodrome :
LOGIN :

S'inscrire | Disclaimer

   EN    FR    IT 

 










Légende :    VFR   VFR Marginal   IFR   IFR Intensif   IFR Très Intensif
Visi : 
Plafond : 
>= 8 km
>= 3000ft
5 à 8 km
1000 à 3000 ft
1500m à 5 km
500 à 1000 ft
800 à 1500m
200 à 500 ft
< 800m
< 200 ft
Symboles :   Orages  Brouillard  Fortes neiges  Fortes précipitations  Vent > 20 kt
SIGMETs :   Divers  Orages  Givrage  Turbulence  Onde Orograph.  Cendres Volcan.







- Altitude de l'aérodrome : 375 ft
- Code IATA : MST


EHBK - Maastricht Aachen

DERNIER METAR :
  • 181825Z AUTO 10007KT 9999 NCD 18/03 Q1023 NOSIG

METARs EXPIRÉS :
  • 181755Z AUTO 10010KT 9999 NCD 20/03 Q1023 NOSIG
  • 181725Z AUTO 11012KT 9999 NCD 20/03 Q1022 NOSIG
  • 181655Z AUTO 10012KT 070V130 9999 NCD 21/03 Q1022 NOSIG
  • 181625Z AUTO 08013KT 9999 NCD 21/03 Q1022 TEMPO 10012G22KT
  • 181555Z AUTO 07013KT 040V110 9999 NCD 21/03 Q1022 TEMPO 10012G22KT
  • 181525Z AUTO 10015KT 9999 NCD 21/04 Q1022 TEMPO 10012G22KT

TAF TAF EHBK
Valide du 18 à 18h jusqu'au 20 à 00h UTC


181649Z 1818/1924 09008KT CAVOK
Pas de NOTAMs connus pour ce terrain.



MET'MAP, la Météo Aéronautique d'un coup d'oeil ! - Copyright ORBIFLY Décembre 2007 - Disclaimer

ORBIFLY MET'MAP TEAM :

Programmation & Développement : Alexandra Zaïnal
Conception & Développement : Baudouin d'Aumeries
Co-Programmation & Développement : Marc-Olivier Méhu
Soutien technique & logistique : Manuel Goepfert

Contact : metmap@orbifly.com




SOURCES & CREDITS :

   NOAA